createdAt,value
2023-05-20T00:00:26.444Z,101486.41
2023-05-20T00:02:54.010Z,101492.25
2023-05-20T00:05:21.521Z,101489.78
2023-05-20T00:07:49.009Z,101486.22
2023-05-20T00:10:16.666Z,101489.72
2023-05-20T00:12:44.200Z,101490.56
2023-05-20T00:15:14.928Z,101485.97
2023-05-20T00:17:42.361Z,101483.66
2023-05-20T00:20:10.135Z,101484.72
2023-05-20T00:22:39.064Z,101479.31
2023-05-20T00:25:06.724Z,101487.72
2023-05-20T00:27:34.214Z,101489.19
2023-05-20T00:30:02.611Z,101488.53
2023-05-20T00:32:31.294Z,101482.72
2023-05-20T00:34:59.953Z,101482.47
2023-05-20T00:37:27.730Z,101482.22
2023-05-20T00:39:55.179Z,101478.47
2023-05-20T00:42:24.107Z,101484.81
2023-05-20T00:44:51.892Z,101487.75
2023-05-20T00:47:21.310Z,101478.59
2023-05-20T00:49:51.172Z,101473.59
2023-05-20T00:52:22.569Z,101467.50
2023-05-20T00:54:51.154Z,101472.75
2023-05-20T00:57:20.142Z,101479.22
2023-05-20T00:59:47.597Z,101476.06
2023-05-20T01:02:15.073Z,101476.84
2023-05-20T01:04:47.225Z,101471.91
2023-05-20T01:07:19.581Z,101470.19
2023-05-20T01:09:47.329Z,101468.50
2023-05-20T01:12:30.775Z,101473.72
2023-05-20T01:15:12.862Z,101476.25
2023-05-20T01:17:47.483Z,101471.03
2023-05-20T01:20:15.358Z,101476.06
2023-05-20T01:22:50.586Z,101477.25
2023-05-20T01:25:17.974Z,101478.13
2023-05-20T01:27:45.486Z,101479.91
2023-05-20T01:30:14.261Z,101471.31
2023-05-20T01:32:45.483Z,101470.91
2023-05-20T01:35:15.027Z,101467.81
2023-05-20T01:37:43.926Z,101471.78
2023-05-20T01:40:15.772Z,101476.03
2023-05-20T01:42:44.518Z,101478.31
2023-05-20T01:45:13.491Z,101474.78
2023-05-20T01:47:40.978Z,101475.56
2023-05-20T01:50:09.014Z,101474.59
2023-05-20T01:52:36.635Z,101471.50
2023-05-20T01:55:04.185Z,101477.91
2023-05-20T01:57:32.382Z,101475.00
2023-05-20T01:59:59.767Z,101473.28
2023-05-20T02:02:27.351Z,101470.66
2023-05-20T02:04:55.180Z,101486.56
2023-05-20T02:07:22.664Z,101482.84
2023-05-20T02:09:50.179Z,101484.16
2023-05-20T02:12:17.911Z,101478.91
2023-05-20T02:14:47.445Z,101482.50
2023-05-20T02:17:16.735Z,101482.75
2023-05-20T02:19:46.073Z,101480.97
2023-05-20T02:22:14.717Z,101477.16
2023-05-20T02:24:43.617Z,101486.03
2023-05-20T02:27:11.116Z,101497.28
2023-05-20T02:29:38.603Z,101495.66
2023-05-20T02:32:06.403Z,101492.31
2023-05-20T02:34:33.933Z,101492.09
2023-05-20T02:37:01.541Z,101492.09
2023-05-20T02:39:29.109Z,101499.72
2023-05-20T02:41:57.123Z,101505.16
2023-05-20T02:44:24.559Z,101501.94
2023-05-20T02:46:52.349Z,101498.94
2023-05-20T02:49:19.768Z,101494.63
2023-05-20T02:51:47.758Z,101506.50
2023-05-20T02:54:15.530Z,101504.38
2023-05-20T02:56:43.090Z,101508.22
2023-05-20T02:59:10.634Z,101507.09
2023-05-20T03:01:38.155Z,101509.91
2023-05-20T03:04:06.261Z,101512.00
2023-05-20T03:06:34.227Z,101516.91
2023-05-20T03:09:01.696Z,101508.25
2023-05-20T03:11:29.303Z,101510.84
2023-05-20T03:13:56.704Z,101506.66
2023-05-20T03:16:25.524Z,101509.53
2023-05-20T03:18:54.653Z,101511.03
2023-05-20T03:21:24.278Z,101515.56
2023-05-20T03:23:52.025Z,101519.31
2023-05-20T03:26:19.557Z,101513.91
2023-05-20T03:28:46.981Z,101515.19
2023-05-20T03:31:14.640Z,101516.94
2023-05-20T03:33:42.919Z,101519.84
2023-05-20T03:36:10.370Z,101509.03
2023-05-20T03:38:38.404Z,101514.56
2023-05-20T03:41:05.958Z,101518.56
2023-05-20T03:43:35.326Z,101516.69
2023-05-20T03:46:02.725Z,101510.22
2023-05-20T03:48:30.190Z,101509.22
2023-05-20T03:50:57.610Z,101509.44
2023-05-20T03:53:25.101Z,101509.25
2023-05-20T03:55:52.640Z,101515.72
2023-05-20T03:58:23.716Z,101521.41
2023-05-20T04:00:51.251Z,101521.63
2023-05-20T04:03:18.740Z,101519.34
2023-05-20T04:05:46.307Z,101529.81
2023-05-20T04:08:13.831Z,101532.75
2023-05-20T04:10:45.452Z,101520.22
2023-05-20T04:13:12.959Z,101530.69
2023-05-20T04:15:41.645Z,101532.78
2023-05-20T04:18:10.495Z,101530.28
2023-05-20T04:20:38.341Z,101535.09
2023-05-20T04:23:05.893Z,101537.81
2023-05-20T04:25:34.831Z,101536.75
2023-05-20T04:28:02.645Z,101539.25
2023-05-20T04:30:33.509Z,101541.13
2023-05-20T04:33:03.373Z,101536.50
2023-05-20T04:35:31.066Z,101543.38
2023-05-20T04:37:58.621Z,101541.50
2023-05-20T04:40:27.514Z,101538.56
2023-05-20T04:42:56.004Z,101536.03
2023-05-20T04:45:23.778Z,101542.91
2023-05-20T04:47:53.433Z,101541.41
2023-05-20T04:50:21.994Z,101548.94
2023-05-20T04:52:50.718Z,101542.22
2023-05-20T04:55:19.880Z,101534.59
2023-05-20T04:57:47.335Z,101537.25
2023-05-20T05:00:15.079Z,101534.88
2023-05-20T05:02:43.462Z,101536.03
2023-05-20T05:05:10.954Z,101533.47
2023-05-20T05:07:38.379Z,101532.13
2023-05-20T05:10:06.715Z,101532.75
2023-05-20T05:12:34.409Z,101540.75
2023-05-20T05:15:01.881Z,101539.75
2023-05-20T05:17:29.859Z,101552.66
2023-05-20T05:19:57.283Z,101546.00
2023-05-20T05:22:24.730Z,101545.44
2023-05-20T05:24:52.473Z,101545.75
2023-05-20T05:27:19.860Z,101554.41
2023-05-20T05:29:47.610Z,101559.38
2023-05-20T05:32:16.298Z,101550.31
2023-05-20T05:34:43.896Z,101554.31
2023-05-20T05:37:11.395Z,101551.38
2023-05-20T05:39:38.963Z,101553.22
2023-05-20T05:42:06.522Z,101543.94
2023-05-20T05:44:34.175Z,101546.31
2023-05-20T05:47:01.794Z,101550.63
2023-05-20T05:49:29.477Z,101555.50
2023-05-20T05:51:56.962Z,101547.66
2023-05-20T05:54:24.472Z,101556.59
2023-05-20T05:56:52.847Z,101553.06
2023-05-20T05:59:20.523Z,101537.59
2023-05-20T06:01:47.979Z,101546.66
2023-05-20T06:04:15.944Z,101543.44
2023-05-20T06:06:43.456Z,101537.34
2023-05-20T06:09:11.189Z,101540.44
2023-05-20T06:11:38.631Z,101542.19
2023-05-20T06:14:06.243Z,101549.53
2023-05-20T06:16:33.984Z,101546.47
2023-05-20T06:19:03.566Z,101540.63
2023-05-20T06:21:32.954Z,101536.97
2023-05-20T06:24:00.474Z,101540.59
2023-05-20T06:26:27.955Z,101542.31
2023-05-20T06:28:55.516Z,101545.56
2023-05-20T06:31:23.120Z,101546.66
2023-05-20T06:34:16.122Z,101541.31
2023-05-20T06:36:43.514Z,101545.13
2023-05-20T06:39:12.637Z,101537.66
2023-05-20T06:41:40.668Z,101538.94
2023-05-20T06:44:08.285Z,101530.91
2023-05-20T06:46:35.961Z,101539.28
2023-05-20T06:49:03.801Z,101537.78
2023-05-20T06:51:31.624Z,101539.09
2023-05-20T06:53:59.007Z,101546.50
2023-05-20T06:56:26.399Z,101540.41
2023-05-20T06:58:54.626Z,101544.34
2023-05-20T07:01:22.343Z,101547.75
2023-05-20T07:03:49.919Z,101552.25
2023-05-20T07:06:17.343Z,101561.97
2023-05-20T07:08:45.165Z,101554.19
2023-05-20T07:11:13.088Z,101562.94
2023-05-20T07:13:40.994Z,101563.78
2023-05-20T07:16:08.470Z,101558.53
2023-05-20T07:18:36.617Z,101558.34
2023-05-20T07:21:04.149Z,101552.31
2023-05-20T07:23:32.311Z,101548.44
2023-05-20T07:25:59.786Z,101557.16
2023-05-20T07:28:27.265Z,101556.16
2023-05-20T07:30:56.146Z,101566.50
2023-05-20T07:33:24.596Z,101558.31
2023-05-20T07:35:54.671Z,101556.78
2023-05-20T07:38:22.661Z,101557.53
2023-05-20T07:40:50.049Z,101555.44
2023-05-20T07:43:17.418Z,101558.63
2023-05-20T07:45:45.042Z,101552.09
2023-05-20T07:48:13.225Z,101552.53
2023-05-20T07:50:40.995Z,101540.06
2023-05-20T07:53:08.493Z,101538.69
2023-05-20T07:55:37.155Z,101531.81
2023-05-20T07:58:04.609Z,101545.41
2023-05-20T08:00:32.922Z,101549.63
2023-05-20T08:03:00.617Z,101534.13
2023-05-20T08:05:28.343Z,101533.50
2023-05-20T08:07:56.516Z,101531.13
2023-05-20T08:10:23.982Z,101533.63
2023-05-20T08:12:51.764Z,101528.03
2023-05-20T08:15:19.402Z,101537.72
2023-05-20T08:17:46.843Z,101537.16
2023-05-20T08:20:14.554Z,101533.53
2023-05-20T08:22:42.185Z,101530.41
2023-05-20T08:25:10.213Z,101519.53
2023-05-20T08:27:37.934Z,101523.84
2023-05-20T08:30:08.300Z,101523.75
2023-05-20T08:32:37.511Z,101538.59
2023-05-20T08:35:05.583Z,101528.34
2023-05-20T08:37:33.060Z,101522.53
2023-05-20T08:40:00.577Z,101529.72
2023-05-20T08:42:28.255Z,101531.38
2023-05-20T08:44:58.287Z,101524.75
2023-05-20T08:47:27.066Z,101528.59
2023-05-20T08:49:54.656Z,101526.13
2023-05-20T08:52:22.728Z,101520.84
2023-05-20T08:54:51.644Z,101524.72
2023-05-20T08:57:20.414Z,101515.28
2023-05-20T08:59:47.928Z,101518.63
2023-05-20T09:02:15.811Z,101528.91
2023-05-20T09:04:43.442Z,101524.69
2023-05-20T09:07:11.211Z,101524.06
2023-05-20T09:09:38.592Z,101526.13
2023-05-20T09:12:06.520Z,101519.66
2023-05-20T09:14:34.425Z,101519.03
2023-05-20T09:17:01.851Z,101512.09
2023-05-20T09:19:30.884Z,101517.53
2023-05-20T09:21:58.550Z,101515.38
2023-05-20T09:24:26.947Z,101511.06
2023-05-20T09:26:54.788Z,101503.47
2023-05-20T09:29:23.176Z,101493.63
2023-05-20T09:31:50.869Z,101497.66
2023-05-20T09:34:20.218Z,101493.84
2023-05-20T09:36:51.224Z,101486.00
2023-05-20T09:39:30.748Z,101493.19
2023-05-20T09:42:06.117Z,101500.03
2023-05-20T09:44:35.217Z,101491.47
2023-05-20T09:47:03.178Z,101488.31
2023-05-20T09:49:33.046Z,101479.94
2023-05-20T09:52:03.637Z,101481.03
2023-05-20T09:54:32.508Z,101474.13
2023-05-20T09:57:00.411Z,101467.47
2023-05-20T09:59:28.700Z,101475.97
2023-05-20T10:01:56.387Z,101483.00
2023-05-20T10:04:26.861Z,101477.22
2023-05-20T10:07:07.103Z,101470.63
2023-05-20T10:09:51.109Z,101458.28
2023-05-20T10:12:32.472Z,101468.22
2023-05-20T10:15:17.212Z,101464.31
2023-05-20T10:18:06.184Z,101462.81
2023-05-20T10:20:44.535Z,101451.69
2023-05-20T10:23:21.293Z,101456.94
2023-05-20T10:25:55.973Z,101445.13
2023-05-20T10:28:31.864Z,101450.19
2023-05-20T10:31:00.751Z,101438.16
2023-05-20T10:33:29.133Z,101440.22
2023-05-20T10:36:00.490Z,101423.53
2023-05-20T10:38:27.947Z,101422.66
2023-05-20T10:40:57.499Z,101434.00
2023-05-20T10:43:29.171Z,101426.06
2023-05-20T10:45:58.687Z,101435.63
2023-05-20T10:48:33.506Z,101424.03
2023-05-20T10:51:06.096Z,101424.53
2023-05-20T10:53:41.539Z,101424.06
2023-05-20T10:56:23.173Z,101417.56
2023-05-20T10:58:52.591Z,101418.00
2023-05-20T11:01:26.115Z,101408.34
2023-05-20T11:03:57.944Z,101414.69
2023-05-20T11:06:28.579Z,101409.53
2023-05-20T11:08:56.567Z,101417.69
2023-05-20T11:11:24.171Z,101412.78
2023-05-20T11:13:53.127Z,101419.81
2023-05-20T11:16:22.475Z,101420.13
2023-05-20T11:18:50.715Z,101414.84
2023-05-20T11:21:19.488Z,101406.66
2023-05-20T11:23:47.034Z,101416.97
2023-05-20T11:26:14.611Z,101421.47
2023-05-20T11:28:42.395Z,101418.06
2023-05-20T11:31:10.284Z,101419.03
2023-05-20T11:33:42.011Z,101413.72
2023-05-20T11:36:23.900Z,101420.91
2023-05-20T11:38:57.057Z,101421.28
2023-05-20T11:41:28.150Z,101422.31
2023-05-20T11:43:59.435Z,101411.03
2023-05-20T11:46:28.129Z,101406.69
2023-05-20T11:48:56.225Z,101409.56
2023-05-20T11:51:30.215Z,101408.81
2023-05-20T11:54:02.512Z,101399.81
2023-05-20T11:56:31.508Z,101392.97
2023-05-20T11:59:03.320Z,101401.41
2023-05-20T12:01:33.973Z,101394.44
2023-05-20T12:04:02.089Z,101388.03
2023-05-20T12:06:29.779Z,101380.25
2023-05-20T12:08:57.378Z,101385.97
2023-05-20T12:11:24.829Z,101378.09
2023-05-20T12:13:52.383Z,101381.22
2023-05-20T12:16:19.782Z,101378.22
2023-05-20T12:18:47.403Z,101372.63
2023-05-20T12:21:16.281Z,101369.19
2023-05-20T12:23:43.680Z,101371.88
2023-05-20T12:26:11.165Z,101359.34
2023-05-20T12:28:38.603Z,101356.91
2023-05-20T12:31:06.384Z,101357.03
2023-05-20T12:33:36.035Z,101352.06
2023-05-20T12:36:03.499Z,101352.06
2023-05-20T12:38:31.321Z,101357.22
2023-05-20T12:40:58.755Z,101351.75
2023-05-20T12:43:26.364Z,101354.16
2023-05-20T12:45:54.514Z,101352.63
2023-05-20T12:48:21.950Z,101342.25
2023-05-20T12:50:49.355Z,101349.94
2023-05-20T12:53:16.771Z,101347.59
2023-05-20T12:55:44.357Z,101333.72
2023-05-20T12:58:11.732Z,101341.84
2023-05-20T13:00:39.204Z,101333.72
2023-05-20T13:03:06.867Z,101346.25
2023-05-20T13:05:34.476Z,101343.31
2023-05-20T13:08:02.026Z,101337.06
2023-05-20T13:10:29.757Z,101337.13
2023-05-20T13:12:57.321Z,101327.13
2023-05-20T13:15:25.107Z,101321.63
2023-05-20T13:17:52.578Z,101331.72
2023-05-20T13:20:20.303Z,101329.31
2023-05-20T13:22:48.118Z,101331.41
2023-05-20T13:25:15.709Z,101322.56
2023-05-20T13:27:43.204Z,101319.09
2023-05-20T13:30:10.972Z,101317.03
2023-05-20T13:32:39.113Z,101314.31
2023-05-20T13:35:07.216Z,101317.59
2023-05-20T13:37:34.770Z,101308.00
2023-05-20T13:40:02.175Z,101317.09
2023-05-20T13:42:29.761Z,101309.22
2023-05-20T13:44:57.210Z,101310.78
2023-05-20T13:47:24.672Z,101315.09
2023-05-20T13:49:52.128Z,101308.16
2023-05-20T13:52:19.574Z,101309.00
2023-05-20T13:54:48.762Z,101311.19
2023-05-20T13:57:16.529Z,101302.75
2023-05-20T13:59:44.092Z,101302.75
2023-05-20T14:02:11.835Z,101311.41
2023-05-20T14:04:40.020Z,101309.53
2023-05-20T14:07:10.368Z,101307.00
2023-05-20T14:09:37.996Z,101316.09
2023-05-20T14:12:06.455Z,101302.44
2023-05-20T14:14:34.328Z,101305.22
2023-05-20T14:17:01.794Z,101304.41
2023-05-20T14:19:32.486Z,101306.16
2023-05-20T14:22:01.390Z,101295.50
2023-05-20T14:24:29.723Z,101296.97
2023-05-20T14:26:57.288Z,101293.72
2023-05-20T14:29:24.773Z,101295.09
2023-05-20T14:31:52.214Z,101291.47
2023-05-20T14:34:19.656Z,101284.34
2023-05-20T14:36:47.885Z,101287.75
2023-05-20T14:39:15.344Z,101289.06
2023-05-20T14:41:42.839Z,101295.25
2023-05-20T14:44:10.199Z,101291.72
2023-05-20T14:46:37.907Z,101289.47
2023-05-20T14:49:05.892Z,101287.31
2023-05-20T14:51:33.288Z,101288.84
2023-05-20T14:54:01.024Z,101288.06
2023-05-20T14:56:28.522Z,101292.09
2023-05-20T14:58:56.019Z,101287.50
2023-05-20T15:01:23.485Z,101290.06
2023-05-20T15:03:51.047Z,101287.81
2023-05-20T15:06:18.738Z,101287.13
2023-05-20T15:08:46.231Z,101286.59
2023-05-20T15:11:13.645Z,101285.31
2023-05-20T15:13:41.621Z,101276.81
2023-05-20T15:16:09.008Z,101278.22
2023-05-20T15:18:36.483Z,101271.09
2023-05-20T15:21:04.357Z,101277.47
2023-05-20T15:23:32.358Z,101280.50
2023-05-20T15:25:59.870Z,101267.56
2023-05-20T15:28:27.308Z,101268.69
2023-05-20T15:30:56.076Z,101275.03
2023-05-20T15:33:23.995Z,101270.38
2023-05-20T15:35:51.627Z,101263.47
2023-05-20T15:38:19.021Z,101269.56
2023-05-20T15:40:47.515Z,101264.06
2023-05-20T15:43:15.060Z,101273.97
2023-05-20T15:45:42.708Z,101280.56
2023-05-20T15:48:10.318Z,101274.19
2023-05-20T15:50:38.211Z,101271.91
2023-05-20T15:53:09.690Z,101271.59
2023-05-20T15:55:37.109Z,101273.78
2023-05-20T15:58:04.504Z,101268.00
2023-05-20T16:00:32.360Z,101272.13
2023-05-20T16:02:59.859Z,101273.75
2023-05-20T16:05:27.402Z,101280.09
2023-05-20T16:07:55.542Z,101274.50
2023-05-20T16:10:25.308Z,101278.94
2023-05-20T16:12:53.629Z,101282.41
2023-05-20T16:15:21.215Z,101274.75
2023-05-20T16:17:48.880Z,101277.50
2023-05-20T16:20:16.373Z,101277.13
2023-05-20T16:22:44.830Z,101276.19
2023-05-20T16:25:12.260Z,101281.91
2023-05-20T16:27:39.795Z,101284.22
2023-05-20T16:30:08.117Z,101283.41
2023-05-20T16:32:35.892Z,101279.44
2023-05-20T16:35:05.066Z,101281.03
2023-05-20T16:37:33.275Z,101284.88
2023-05-20T16:40:00.849Z,101285.03
2023-05-20T16:42:28.457Z,101281.16
2023-05-20T16:44:55.881Z,101277.25
2023-05-20T16:47:24.765Z,101277.09
2023-05-20T16:49:53.408Z,101279.25
2023-05-20T16:52:21.031Z,101278.94
2023-05-20T16:54:50.378Z,101279.94
2023-05-20T16:57:24.837Z,101282.59
2023-05-20T16:59:52.261Z,101273.38
2023-05-20T17:02:19.712Z,101278.75
2023-05-20T17:04:47.449Z,101276.47
2023-05-20T17:07:15.610Z,101273.53
2023-05-20T17:09:43.003Z,101275.88
2023-05-20T17:12:10.515Z,101269.28
2023-05-20T17:14:38.175Z,101271.69
2023-05-20T17:17:05.841Z,101274.81
2023-05-20T17:19:33.787Z,101278.28
2023-05-20T17:22:01.370Z,101279.84
2023-05-20T17:24:28.995Z,101272.31
2023-05-20T17:26:56.823Z,101280.38
2023-05-20T17:29:24.659Z,101285.09
2023-05-20T17:31:52.181Z,101279.66
2023-05-20T17:34:19.659Z,101284.06
2023-05-20T17:36:47.156Z,101285.38
2023-05-20T17:39:15.115Z,101287.53
2023-05-20T17:41:43.565Z,101291.03
2023-05-20T17:44:11.416Z,101292.16
2023-05-20T17:46:38.941Z,101294.09
2023-05-20T17:49:06.474Z,101299.88
2023-05-20T17:51:34.351Z,101298.94
2023-05-20T17:54:01.827Z,101290.97
2023-05-20T17:56:29.445Z,101296.41
2023-05-20T17:58:56.855Z,101292.09
2023-05-20T18:01:24.240Z,101298.44
2023-05-20T18:03:51.991Z,101293.00
2023-05-20T18:06:19.498Z,101292.88
2023-05-20T18:08:47.127Z,101288.81
2023-05-20T18:11:15.037Z,101285.69
2023-05-20T18:13:42.552Z,101291.53
2023-05-20T18:16:09.972Z,101287.00
2023-05-20T18:18:37.526Z,101288.41
2023-05-20T18:21:07.431Z,101290.41
2023-05-20T18:23:34.876Z,101287.22
2023-05-20T18:26:06.954Z,101290.06
2023-05-20T18:28:34.935Z,101289.09
2023-05-20T18:31:02.440Z,101282.78
2023-05-20T18:33:30.401Z,101278.72
2023-05-20T18:35:57.985Z,101281.69
2023-05-20T18:38:25.943Z,101276.69
2023-05-20T18:40:53.549Z,101275.81
2023-05-20T18:43:20.991Z,101287.78
2023-05-20T18:45:48.421Z,101285.13
2023-05-20T18:48:25.552Z,101279.53
2023-05-20T18:50:58.750Z,101291.16
2023-05-20T18:53:26.842Z,101285.63
2023-05-20T18:55:54.410Z,101289.19
2023-05-20T18:58:21.743Z,101286.94
2023-05-20T19:00:49.449Z,101293.69
2023-05-20T19:03:17.216Z,101283.41
2023-05-20T19:05:44.855Z,101277.19
2023-05-20T19:08:15.180Z,101276.56
2023-05-20T19:10:44.308Z,101273.34
2023-05-20T19:13:12.397Z,101272.72
2023-05-20T19:15:40.101Z,101280.50
2023-05-20T19:18:07.691Z,101281.88
2023-05-20T19:20:35.225Z,101274.53
2023-05-20T19:23:03.156Z,101263.66
2023-05-20T19:25:30.702Z,101268.75
2023-05-20T19:27:58.541Z,101269.00
2023-05-20T19:30:26.550Z,101254.56
2023-05-20T19:32:54.187Z,101255.78
2023-05-20T19:35:21.838Z,101265.63
2023-05-20T19:37:49.199Z,101263.19
2023-05-20T19:40:16.695Z,101255.69
2023-05-20T19:42:44.327Z,101264.53
2023-05-20T19:45:11.884Z,101260.81
2023-05-20T19:47:39.883Z,101268.69
2023-05-20T19:50:08.600Z,101278.16
2023-05-20T19:52:36.549Z,101278.91
2023-05-20T19:55:04.636Z,101287.41
2023-05-20T19:57:32.270Z,101288.19
2023-05-20T19:59:59.883Z,101298.88
2023-05-20T20:02:27.423Z,101295.31
2023-05-20T20:04:55.361Z,101303.50
2023-05-20T20:07:23.969Z,101301.28
2023-05-20T20:09:55.222Z,101300.84
2023-05-20T20:12:23.630Z,101293.16
2023-05-20T20:14:52.089Z,101289.53
2023-05-20T20:17:21.273Z,101287.59
2023-05-20T20:19:53.213Z,101289.41
2023-05-20T20:22:20.954Z,101285.50
2023-05-20T20:24:49.892Z,101272.66
2023-05-20T20:27:19.331Z,101282.25
2023-05-20T20:29:46.972Z,101281.06
2023-05-20T20:32:14.441Z,101281.31
2023-05-20T20:34:43.134Z,101295.81
2023-05-20T20:37:14.680Z,101290.50
2023-05-20T20:39:46.867Z,101287.50
2023-05-20T20:42:14.322Z,101290.34
2023-05-20T20:44:48.520Z,101298.41
2023-05-20T20:47:16.182Z,101295.78
2023-05-20T20:49:43.585Z,101303.19
2023-05-20T20:52:12.483Z,101298.41
2023-05-20T20:54:42.782Z,101296.72
2023-05-20T20:57:11.637Z,101296.44
2023-05-20T20:59:39.995Z,101293.81
2023-05-20T21:02:07.434Z,101288.50
2023-05-20T21:04:35.954Z,101291.84
2023-05-20T21:07:03.597Z,101285.00
2023-05-20T21:09:31.305Z,101290.75
2023-05-20T21:12:00.573Z,101291.81
2023-05-20T21:14:28.586Z,101306.19
2023-05-20T21:16:56.092Z,101295.25
2023-05-20T21:19:23.784Z,101298.16
2023-05-20T21:21:51.313Z,101290.13
2023-05-20T21:24:19.854Z,101296.72
2023-05-20T21:26:47.332Z,101293.13
2023-05-20T21:29:14.720Z,101298.94
2023-05-20T21:31:42.236Z,101299.19
2023-05-20T21:34:09.724Z,101295.47
2023-05-20T21:36:37.179Z,101298.94
2023-05-20T21:39:04.810Z,101297.31
2023-05-20T21:41:32.907Z,101292.97
2023-05-20T21:44:00.297Z,101293.25
2023-05-20T21:46:27.838Z,101292.75
2023-05-20T21:48:55.376Z,101294.56
2023-05-20T21:51:22.793Z,101281.66
2023-05-20T21:53:50.264Z,101280.75
2023-05-20T21:56:18.419Z,101286.38
2023-05-20T21:58:45.853Z,101277.56
2023-05-20T22:01:13.337Z,101273.53
2023-05-20T22:03:40.915Z,101273.16
2023-05-20T22:06:09.296Z,101274.59
2023-05-20T22:08:37.092Z,101278.16
2023-05-20T22:11:08.034Z,101268.53
2023-05-20T22:13:36.316Z,101274.06
2023-05-20T22:16:05.114Z,101270.28
2023-05-20T22:18:32.855Z,101261.56
2023-05-20T22:21:01.217Z,101268.28
2023-05-20T22:23:29.143Z,101267.03
2023-05-20T22:25:56.920Z,101266.19
2023-05-20T22:28:26.356Z,101265.13
2023-05-20T22:30:54.846Z,101276.69
2023-05-20T22:33:23.078Z,101269.00
2023-05-20T22:35:51.493Z,101266.03
2023-05-20T22:38:19.367Z,101270.00
2023-05-20T22:40:47.003Z,101275.53
2023-05-20T22:43:14.473Z,101265.56
2023-05-20T22:45:42.138Z,101268.06
2023-05-20T22:48:09.621Z,101259.06
2023-05-20T22:50:37.078Z,101258.56
2023-05-20T22:53:04.583Z,101261.63
2023-05-20T22:55:32.498Z,101261.78
2023-05-20T22:58:00.230Z,101263.41
2023-05-20T23:00:27.872Z,101263.28
2023-05-20T23:02:56.771Z,101259.09
2023-05-20T23:05:26.727Z,101260.16
2023-05-20T23:07:55.076Z,101261.53
2023-05-20T23:10:24.470Z,101256.31
2023-05-20T23:12:52.370Z,101268.06
2023-05-20T23:15:19.838Z,101265.19
2023-05-20T23:17:48.436Z,101257.56
2023-05-20T23:20:19.091Z,101266.66
2023-05-20T23:22:46.806Z,101261.41
2023-05-20T23:25:14.228Z,101264.47
2023-05-20T23:27:42.323Z,101261.75
2023-05-20T23:30:10.702Z,101259.81
2023-05-20T23:32:39.016Z,101269.06
2023-05-20T23:35:07.431Z,101266.41
2023-05-20T23:37:35.589Z,101268.81
2023-05-20T23:40:05.027Z,101264.44
2023-05-20T23:42:33.124Z,101260.34
2023-05-20T23:45:00.641Z,101252.28
2023-05-20T23:47:30.066Z,101265.00
2023-05-20T23:49:58.818Z,101259.25
2023-05-20T23:52:26.809Z,101266.88
2023-05-20T23:54:56.367Z,101260.66
2023-05-20T23:57:23.953Z,101259.66
2023-05-20T23:59:51.576Z,101261.31
